Time;durP1;ratioP1;P1;durP2;ratioP2;P2;SDS_P1;SDS_P2;PMS_P1;PMS_P2;Temp;Humidity;BMP_temperature;BMP_pressure;BME280_temperature;BME280_humidity;BME280_pressure;Samples;Min_cycle;Max_cycle;Signal;HPM_P1;HPM_P2
2021/07/28 00:01:28;;;;;;;5.38;4.88;;;17.00;91.20;;;;;;5092156;28;20464;-78
2021/07/28 00:03:54;;;;;;;6.25;4.85;;;16.90;91.10;;;;;;5075218;28;20028;-78
2021/07/28 00:06:23;;;;;;;5.85;5.30;;;17.00;91.20;;;;;;5075200;28;20439;-78
2021/07/28 00:08:50;;;;;;;7.65;5.72;;;17.00;91.10;;;;;;5093337;28;20035;-77
2021/07/28 00:11:18;;;;;;;5.53;4.70;;;17.00;91.10;;;;;;5091950;28;20105;-79
2021/07/28 00:13:45;;;;;;;7.53;5.30;;;17.00;91.10;;;;;;5091925;28;20103;-83
2021/07/28 00:16:13;;;;;;;8.02;5.25;;;17.10;91.00;;;;;;5075432;28;20449;-78
2021/07/28 00:18:55;;;;;;;6.70;4.97;;;17.20;90.90;;;;;;5093857;28;20451;-78
2021/07/28 00:24:04;;;;;;;7.35;5.57;;;17.30;90.70;;;;;;5092155;28;20248;-78
2021/07/28 00:26:31;;;;;;;5.00;4.50;;;17.30;90.70;;;;;;5092985;28;20032;-78
2021/07/28 00:28:56;;;;;;;5.43;4.93;;;17.40;90.70;;;;;;5075104;28;20448;-79
2021/07/28 00:31:22;;;;;;;6.55;5.03;;;17.40;90.60;;;;;;5075066;28;20028;-78
2021/07/28 00:33:48;;;;;;;5.43;4.75;;;17.40;90.60;;;;;;5093325;28;20025;-83
2021/07/28 00:36:13;;;;;;;6.22;5.00;;;17.40;90.60;;;;;;5091877;28;20024;-78
2021/07/28 00:38:39;;;;;;;10.25;5.30;;;17.40;90.60;;;;;;5093073;28;20061;-78
2021/07/28 00:41:05;;;;;;;6.10;4.63;;;17.30;90.60;;;;;;5092017;28;20103;-78
2021/07/28 00:43:32;;;;;;;9.00;4.75;;;17.30;90.60;;;;;;5093193;28;20031;-77
2021/07/28 00:45:57;;;;;;;5.20;4.70;;;17.20;90.60;;;;;;5077964;28;20482;-78
2021/07/28 00:48:23;;;;;;;7.25;4.93;;;17.20;90.70;;;;;;5096652;28;20083;-77
2021/07/28 00:50:49;;;;;;;6.57;4.53;;;17.20;90.70;;;;;;5097031;28;20035;-82
2021/07/28 00:53:20;;;;;;;6.63;5.05;;;17.20;90.70;;;;;;5095672;28;20036;-78
2021/07/28 00:55:50;;;;;;;7.93;5.15;;;17.20;90.80;;;;;;5096815;28;20051;-78
2021/07/28 00:58:17;;;;;;;5.60;4.55;;;17.20;90.80;;;;;;5080409;28;20031;-77
2021/07/28 01:00:43;;;;;;;5.63;4.85;;;17.10;90.80;;;;;;5097014;28;20043;-77
2021/07/28 01:03:09;;;;;;;5.93;5.30;;;17.20;90.80;;;;;;5095361;28;20032;-79
2021/07/28 01:05:35;;;;;;;6.07;5.00;;;17.40;90.70;;;;;;5095656;28;20031;-77
2021/07/28 01:08:02;;;;;;;6.28;4.88;;;17.40;90.60;;;;;;5095067;28;20030;-78
2021/07/28 01:10:28;;;;;;;7.07;5.43;;;17.40;90.60;;;;;;5095108;28;20031;-76
2021/07/28 01:12:55;;;;;;;5.50;4.57;;;17.40;90.40;;;;;;5095843;28;20112;-79
2021/07/28 01:15:32;;;;;;;7.28;4.97;;;17.30;90.40;;;;;;5097066;28;20024;-77
2021/07/28 01:18:00;;;;;;;7.03;5.50;;;17.20;90.40;;;;;;5079960;28;20027;-78
2021/07/28 01:20:41;;;;;;;7.63;5.38;;;17.10;90.60;;;;;;5096457;28;20030;-77
2021/07/28 01:23:13;;;;;;;8.48;5.32;;;17.10;90.70;;;;;;5097124;28;20232;-77
2021/07/28 01:25:39;;;;;;;6.88;5.25;;;17.00;90.80;;;;;;5096517;28;20066;-77
2021/07/28 01:28:06;;;;;;;6.28;5.28;;;16.90;90.90;;;;;;5096187;28;20114;-77
2021/07/28 01:30:32;;;;;;;7.15;5.60;;;16.90;91.00;;;;;;5095270;28;20024;-78
2021/07/28 01:33:00;;;;;;;8.50;5.50;;;16.90;91.00;;;;;;5096376;28;20043;-77
2021/07/28 01:35:27;;;;;;;7.82;6.60;;;16.80;90.90;;;;;;5094975;28;20031;-77
2021/07/28 01:37:54;;;;;;;9.85;6.10;;;16.80;91.00;;;;;;5095946;28;20443;-82
2021/07/28 01:40:19;;;;;;;8.63;6.63;;;16.70;91.30;;;;;;5096367;28;20044;-77
2021/07/28 01:42:46;;;;;;;7.55;6.40;;;16.70;91.20;;;;;;5095969;28;20384;-77
2021/07/28 01:45:13;;;;;;;7.65;6.63;;;16.60;91.20;;;;;;5094791;28;20081;-78
2021/07/28 01:47:42;;;;;;;9.13;6.63;;;16.60;91.30;;;;;;5095409;28;20031;-77
2021/07/28 01:50:09;;;;;;;9.35;7.22;;;16.60;91.40;;;;;;5094795;28;20024;-77
2021/07/28 01:52:36;;;;;;;8.70;7.30;;;16.60;91.50;;;;;;5094887;28;20494;-77
2021/07/28 01:55:02;;;;;;;7.85;6.10;;;16.60;91.50;;;;;;5094392;28;20384;-77
2021/07/28 01:57:28;;;;;;;8.35;7.05;;;16.50;91.60;;;;;;5076715;28;20024;-77
2021/07/28 01:59:54;;;;;;;8.43;6.47;;;16.50;91.70;;;;;;5077686;28;20032;-77
2021/07/28 02:02:19;;;;;;;9.45;6.88;;;16.50;91.70;;;;;;5094255;28;20403;-78
2021/07/28 02:04:45;;;;;;;9.77;6.80;;;16.50;91.80;;;;;;5077652;28;20036;-77
2021/07/28 02:07:11;;;;;;;8.68;6.50;;;16.50;91.80;;;;;;5060670;28;20433;-77
2021/07/28 02:09:36;;;;;;;9.63;6.93;;;16.50;91.80;;;;;;5077075;28;20029;-77
2021/07/28 02:12:02;;;;;;;9.25;7.25;;;16.40;91.90;;;;;;5077133;28;20032;-78
2021/07/28 02:14:27;;;;;;;9.52;7.82;;;16.50;91.90;;;;;;5076990;28;20032;-78
2021/07/28 02:16:53;;;;;;;9.82;7.10;;;16.60;91.90;;;;;;5095520;28;20039;-77
2021/07/28 02:19:19;;;;;;;8.55;7.30;;;16.60;91.90;;;;;;5093571;28;20024;-78
2021/07/28 02:21:44;;;;;;;8.65;7.30;;;16.60;91.90;;;;;;5093190;28;20081;-77
2021/07/28 02:24:10;;;;;;;10.35;7.88;;;16.60;91.90;;;;;;5094620;28;20024;-77
2021/07/28 02:26:35;;;;;;;10.13;7.85;;;16.70;91.90;;;;;;5067574;28;20035;-77
2021/07/28 02:29:01;;;;;;;9.23;8.27;;;16.70;91.90;;;;;;5076943;28;20024;-83
2021/07/28 02:31:27;;;;;;;8.95;7.75;;;16.80;91.80;;;;;;5060726;28;20039;-77
2021/07/28 02:33:52;;;;;;;10.52;7.55;;;16.80;91.70;;;;;;5095288;28;20036;-77
2021/07/28 02:36:18;;;;;;;10.02;8.07;;;16.90;91.80;;;;;;5093484;28;20035;-77
2021/07/28 02:38:43;;;;;;;9.40;7.47;;;17.00;91.60;;;;;;5093639;28;20048;-77
2021/07/28 02:41:09;;;;;;;9.80;8.25;;;17.10;91.60;;;;;;5093499;28;20024;-77
2021/07/28 02:43:34;;;;;;;8.35;7.28;;;17.10;91.40;;;;;;5076408;28;20119;-77
2021/07/28 02:46:00;;;;;;;8.68;7.78;;;17.10;91.40;;;;;;5059799;28;20059;-83
2021/07/28 02:48:26;;;;;;;8.90;7.25;;;17.20;91.40;;;;;;5093208;28;20028;-77
2021/07/28 02:50:51;;;;;;;8.68;7.18;;;17.20;91.40;;;;;;5093268;28;20025;-77
2021/07/28 02:53:20;;;;;;;8.07;6.70;;;17.30;91.30;;;;;;5095904;28;20035;-77
2021/07/28 02:55:46;;;;;;;11.07;7.35;;;17.30;91.30;;;;;;5061995;28;20035;-77
2021/07/28 02:58:11;;;;;;;8.65;7.63;;;17.30;91.30;;;;;;5094820;28;20115;-77
2021/07/28 03:00:37;;;;;;;9.43;7.85;;;17.30;91.20;;;;;;5077708;28;20141;-77
2021/07/28 03:03:03;;;;;;;9.05;7.72;;;17.30;91.10;;;;;;5076156;28;20036;-82
2021/07/28 03:05:29;;;;;;;7.93;7.13;;;17.30;91.10;;;;;;5059581;28;20020;-77
2021/07/28 03:07:54;;;;;;;8.05;6.85;;;17.40;91.10;;;;;;5092330;28;20024;-77
2021/07/28 03:10:20;;;;;;;9.45;8.05;;;17.40;91.10;;;;;;5093855;28;20061;-78
2021/07/28 03:12:45;;;;;;;10.98;8.18;;;17.40;91.10;;;;;;5076240;28;20059;-78
2021/07/28 03:15:11;;;;;;;11.55;7.47;;;17.40;91.10;;;;;;5076072;28;20032;-78
2021/07/28 03:17:37;;;;;;;10.75;7.95;;;17.50;91.10;;;;;;5059282;28;20024;-77
2021/07/28 03:20:03;;;;;;;9.00;7.65;;;17.50;91.10;;;;;;5059326;28;20035;-78
2021/07/28 03:22:29;;;;;;;9.98;7.07;;;17.50;91.10;;;;;;5094259;28;20049;-78
2021/07/28 03:24:54;;;;;;;10.00;7.82;;;17.60;91.20;;;;;;5092491;28;20035;-78
2021/07/28 03:27:20;;;;;;;9.43;7.47;;;17.60;91.10;;;;;;5093369;28;20043;-77
2021/07/28 03:29:45;;;;;;;10.02;7.15;;;17.60;91.20;;;;;;5094456;28;20039;-78
2021/07/28 03:32:11;;;;;;;10.40;8.50;;;17.60;91.10;;;;;;5093262;28;20039;-78
2021/07/28 03:34:38;;;;;;;10.45;7.45;;;17.60;91.10;;;;;;5092621;28;20426;-78
2021/07/28 03:37:04;;;;;;;9.30;7.55;;;17.70;91.10;;;;;;5092712;28;20107;-78
2021/07/28 03:39:30;;;;;;;9.05;7.47;;;17.70;91.10;;;;;;5092865;28;20044;-78
2021/07/28 03:41:55;;;;;;;9.60;7.20;;;17.70;91.00;;;;;;5076435;28;20131;-78
2021/07/28 03:44:21;;;;;;;8.20;7.20;;;17.80;91.00;;;;;;5092806;28;20028;-78
2021/07/28 03:46:47;;;;;;;8.68;7.43;;;17.80;90.90;;;;;;5094088;28;20024;-77
2021/07/28 03:49:12;;;;;;;9.50;7.32;;;17.80;90.80;;;;;;5076070;28;20028;-79
2021/07/28 03:51:38;;;;;;;8.82;6.40;;;17.90;90.80;;;;;;5075712;28;20410;-78
2021/07/28 03:54:04;;;;;;;9.00;7.30;;;17.90;90.70;;;;;;5092380;28;20115;-75
2021/07/28 03:56:29;;;;;;;9.40;7.50;;;17.90;90.70;;;;;;5093080;28;20024;-78
2021/07/28 03:58:56;;;;;;;7.38;6.43;;;17.90;90.60;;;;;;5092214;28;20027;-79
2021/07/28 04:01:23;;;;;;;8.55;7.10;;;17.90;90.60;;;;;;5092649;28;20036;-78
2021/07/28 04:03:52;;;;;;;7.50;6.72;;;17.90;90.50;;;;;;5092039;28;20027;-78
2021/07/28 04:06:18;;;;;;;8.90;7.38;;;17.90;90.50;;;;;;5092002;28;20032;-78
2021/07/28 04:08:44;;;;;;;8.68;6.70;;;17.90;90.60;;;;;;5092000;28;20040;-77
2021/07/28 04:11:09;;;;;;;9.10;6.60;;;17.90;90.60;;;;;;5092985;28;20029;-80
2021/07/28 04:13:35;;;;;;;8.23;7.43;;;17.90;90.60;;;;;;5092207;28;20064;-77
2021/07/28 04:16:00;;;;;;;8.27;7.25;;;17.90;90.60;;;;;;5092779;28;20434;-77
2021/07/28 04:18:26;;;;;;;7.22;6.35;;;17.90;90.50;;;;;;5075622;28;20024;-77
2021/07/28 04:20:52;;;;;;;9.55;7.25;;;18.00;90.50;;;;;;5095371;28;20461;-77
2021/07/28 04:23:17;;;;;;;8.73;6.93;;;18.00;90.40;;;;;;5095891;28;20082;-78
2021/07/28 04:25:43;;;;;;;10.70;8.15;;;18.00;90.30;;;;;;5062760;28;20028;-78
2021/07/28 04:28:09;;;;;;;8.70;7.20;;;18.00;90.30;;;;;;5079089;28;20031;-78
2021/07/28 04:30:34;;;;;;;9.25;6.70;;;18.00;90.30;;;;;;5078992;28;20035;-78
2021/07/28 04:33:00;;;;;;;8.95;7.35;;;18.00;90.30;;;;;;5095838;28;20047;-78
2021/07/28 04:35:26;;;;;;;6.90;6.30;;;18.00;90.20;;;;;;5079271;28;20058;-78
2021/07/28 04:37:51;;;;;;;8.73;6.60;;;18.00;90.20;;;;;;5096182;28;20460;-78
2021/07/28 04:40:17;;;;;;;8.00;6.00;;;18.00;90.10;;;;;;5099168;28;20421;-82
2021/07/28 04:42:43;;;;;;;6.88;5.72;;;18.00;90.20;;;;;;5110678;28;20036;-78
2021/07/28 04:45:09;;;;;;;7.68;6.38;;;18.10;90.20;;;;;;5116193;28;20084;-77
2021/07/28 04:47:34;;;;;;;8.75;7.03;;;18.10;90.10;;;;;;5116768;28;20065;-79
2021/07/28 04:50:00;;;;;;;8.27;6.90;;;18.10;90.00;;;;;;5117354;28;20024;-78
2021/07/28 04:52:26;;;;;;;9.27;6.18;;;18.20;89.70;;;;;;5116099;28;20104;-76
2021/07/28 04:54:52;;;;;;;10.07;7.60;;;18.20;89.80;;;;;;5117158;28;20028;-75
2021/07/28 04:57:18;;;;;;;7.10;6.32;;;18.20;89.90;;;;;;5113869;28;20103;-79
2021/07/28 04:59:44;;;;;;;11.25;6.32;;;18.20;89.90;;;;;;5095612;28;20020;-77
2021/07/28 05:02:10;;;;;;;8.10;6.13;;;18.20;90.00;;;;;;5095516;28;20040;-77
2021/07/28 05:04:36;;;;;;;9.05;6.97;;;18.30;90.00;;;;;;5097145;28;20451;-78
2021/07/28 05:07:02;;;;;;;8.50;6.40;;;18.20;90.00;;;;;;5062533;28;20058;-78
2021/07/28 05:09:27;;;;;;;9.70;6.82;;;18.20;89.70;;;;;;5096109;28;20028;-76
2021/07/28 05:11:53;;;;;;;7.85;6.15;;;18.20;89.90;;;;;;5078676;28;20035;-79
2021/07/28 05:14:19;;;;;;;8.07;7.03;;;18.20;89.60;;;;;;5095265;28;20376;-82
2021/07/28 05:16:44;;;;;;;6.72;6.03;;;18.20;89.50;;;;;;5095053;28;20095;-78
2021/07/28 05:19:10;;;;;;;7.35;6.20;;;18.30;89.60;;;;;;5095465;28;20071;-77
2021/07/28 05:21:36;;;;;;;8.13;6.65;;;18.30;89.70;;;;;;5095546;28;20036;-78
2021/07/28 05:24:02;;;;;;;7.38;6.47;;;18.30;89.40;;;;;;5078554;28;20024;-78
2021/07/28 05:26:27;;;;;;;7.35;5.80;;;18.30;89.50;;;;;;5095645;28;20495;-77
2021/07/28 05:28:53;;;;;;;7.68;6.78;;;18.30;89.60;;;;;;5079103;28;20108;-75
2021/07/28 05:31:19;;;;;;;10.27;7.00;;;18.40;89.70;;;;;;5094018;28;20174;-83
2021/07/28 05:33:44;;;;;;;10.05;5.90;;;18.40;89.20;;;;;;5077958;28;20148;-79
2021/07/28 05:36:11;;;;;;;6.63;5.75;;;18.40;89.20;;;;;;5078069;28;20074;-78
2021/07/28 05:38:36;;;;;;;6.35;5.68;;;18.50;89.50;;;;;;5094789;28;20476;-77
2021/07/28 05:41:03;;;;;;;6.63;5.93;;;18.50;89.30;;;;;;5095020;28;20027;-77
2021/07/28 05:43:28;;;;;;;7.28;6.20;;;18.50;89.10;;;;;;5094753;28;20043;-78
2021/07/28 05:45:54;;;;;;;9.40;6.90;;;18.50;88.70;;;;;;5094948;28;20016;-78
2021/07/28 05:48:20;;;;;;;7.18;6.47;;;18.50;88.60;;;;;;5060970;28;20029;-77
2021/07/28 05:50:46;;;;;;;6.95;6.30;;;18.50;88.80;;;;;;5077972;28;20082;-78
2021/07/28 05:53:11;;;;;;;8.98;6.80;;;18.50;89.30;;;;;;5078310;28;20163;-79
2021/07/28 05:55:37;;;;;;;8.70;6.88;;;18.60;89.20;;;;;;5095022;28;20418;-78
2021/07/28 05:58:03;;;;;;;9.02;6.75;;;18.70;89.10;;;;;;5078001;28;20114;-78
2021/07/28 06:00:29;;;;;;;8.48;6.93;;;18.70;88.70;;;;;;5095209;28;20039;-78
2021/07/28 06:02:55;;;;;;;8.77;6.68;;;18.60;88.60;;;;;;5077739;28;20040;-77
2021/07/28 06:05:20;;;;;;;9.25;6.85;;;18.60;88.60;;;;;;5094544;28;20093;-77
2021/07/28 06:07:46;;;;;;;8.05;5.75;;;18.60;88.50;;;;;;5077378;28;20067;-79
2021/07/28 06:10:14;;;;;;;11.23;9.50;;;18.60;88.90;;;;;;5095291;28;20042;-78
2021/07/28 06:12:44;;;;;;;7.30;5.60;;;18.60;89.30;;;;;;5096963;28;20050;-78
2021/07/28 06:15:11;;;;;;;5.70;4.93;;;18.60;89.40;;;;;;5078130;28;20034;-78
2021/07/28 06:17:36;;;;;;;7.80;5.30;;;18.70;89.30;;;;;;5094648;28;20039;-76
2021/07/28 06:20:03;;;;;;;8.00;6.60;;;18.80;89.00;;;;;;5077669;28;20024;-78
2021/07/28 06:22:29;;;;;;;8.20;6.70;;;19.00;88.80;;;;;;5095228;28;20032;-78
2021/07/28 06:24:54;;;;;;;8.10;6.32;;;19.50;88.10;;;;;;5060829;28;20050;-78
2021/07/28 06:27:20;;;;;;;7.88;6.05;;;20.00;86.70;;;;;;5061681;28;20467;-78
2021/07/28 06:29:46;;;;;;;11.52;6.72;;;20.00;85.80;;;;;;5095278;28;20062;-80
2021/07/28 06:32:11;;;;;;;7.93;7.13;;;20.00;85.50;;;;;;5077303;28;20477;-77
2021/07/28 06:34:37;;;;;;;8.05;6.53;;;19.90;85.80;;;;;;5093666;28;20028;-78
2021/07/28 06:37:03;;;;;;;7.07;6.28;;;19.90;85.90;;;;;;5077157;28;20024;-78
2021/07/28 06:39:29;;;;;;;9.48;6.38;;;19.90;85.40;;;;;;5078057;28;20052;-80
2021/07/28 06:41:54;;;;;;;12.40;9.25;;;20.00;85.30;;;;;;5080226;28;20044;-79
2021/07/28 06:44:21;;;;;;;7.07;6.38;;;20.10;85.40;;;;;;5097316;28;20070;-78
2021/07/28 06:46:47;;;;;;;7.80;6.45;;;20.40;84.60;;;;;;5079650;28;20032;-77
2021/07/28 06:49:13;;;;;;;9.05;6.25;;;20.80;83.00;;;;;;5096441;28;20532;-79
2021/07/28 06:51:38;;;;;;;10.68;7.25;;;21.00;82.20;;;;;;5095259;28;20036;-77
2021/07/28 06:54:04;;;;;;;11.38;6.97;;;21.20;82.00;;;;;;5077798;28;20078;-78
2021/07/28 06:56:31;;;;;;;6.18;5.28;;;21.70;80.50;;;;;;5094603;28;20017;-78
2021/07/28 06:58:56;;;;;;;6.45;4.85;;;22.10;78.60;;;;;;5077941;28;20024;-78
2021/07/28 07:01:22;;;;;;;6.65;4.88;;;22.10;78.20;;;;;;5077748;28;20055;-79
2021/07/28 07:03:48;;;;;;;7.88;5.00;;;22.00;77.30;;;;;;5093840;28;20027;-78
2021/07/28 07:06:15;;;;;;;4.88;4.47;;;22.10;77.50;;;;;;5094536;28;20020;-79
2021/07/28 07:08:41;;;;;;;5.38;4.35;;;22.80;77.30;;;;;;5077598;28;20442;-80
2021/07/28 07:11:06;;;;;;;3.63;3.33;;;23.50;74.60;;;;;;5094641;28;20024;-79
2021/07/28 07:13:34;;;;;;;6.05;3.75;;;24.30;72.50;;;;;;5077583;28;20035;-80
2021/07/28 07:15:59;;;;;;;5.03;3.00;;;25.10;70.20;;;;;;5094903;28;20016;-78
2021/07/28 07:18:25;;;;;;;4.47;3.28;;;25.20;68.30;;;;;;5095168;28;20452;-79
2021/07/28 07:20:55;;;;;;;5.13;3.58;;;25.00;67.50;;;;;;5078901;28;20094;-79
2021/07/28 07:23:25;;;;;;;4.60;3.08;;;24.60;67.60;;;;;;5078467;28;20553;-79
2021/07/28 07:25:50;;;;;;;5.78;3.25;;;24.70;68.40;;;;;;5095111;28;20028;-79
2021/07/28 07:28:16;;;;;;;4.78;3.22;;;25.30;67.70;;;;;;5112397;28;20047;-83
2021/07/28 07:30:42;;;;;;;4.85;3.30;;;25.80;66.10;;;;;;5061849;28;20024;-79
2021/07/28 07:35:51;;;;;;;6.05;2.92;;;26.60;63.90;;;;;;5096505;28;20042;-79
2021/07/28 07:38:17;;;;;;;5.97;3.03;;;27.10;62.90;;;;;;5078909;28;20524;-79
2021/07/28 07:40:43;;;;;;;6.05;3.13;;;27.00;62.40;;;;;;5097262;28;20128;-82
2021/07/28 07:43:09;;;;;;;5.22;3.33;;;26.40;62.80;;;;;;5078009;28;20077;-79
2021/07/28 07:45:36;;;;;;;3.72;3.38;;;26.20;62.90;;;;;;5094378;28;20028;-82
2021/07/28 07:48:02;;;;;;;4.72;3.08;;;25.80;62.20;;;;;;5061114;28;20020;-79
2021/07/28 07:50:31;;;;;;;4.55;2.80;;;25.30;63.10;;;;;;5076739;28;20032;-78
2021/07/28 07:53:01;;;;;;;3.45;2.50;;;24.70;63.40;;;;;;5077285;28;20027;-79
2021/07/28 07:55:27;;;;;;;4.00;2.97;;;24.10;64.70;;;;;;5093386;28;20448;-79
2021/07/28 07:57:54;;;;;;;3.50;2.70;;;23.80;65.70;;;;;;5095295;28;20035;-79
2021/07/28 08:00:20;;;;;;;5.47;3.20;;;23.90;65.70;;;;;;5093583;28;20499;-80
2021/07/28 08:02:45;;;;;;;5.88;3.25;;;23.90;65.00;;;;;;5095094;28;20028;-80
2021/07/28 08:05:11;;;;;;;7.38;3.22;;;23.70;65.00;;;;;;5078220;28;20168;-80
2021/07/28 08:07:38;;;;;;;3.53;2.97;;;23.50;65.90;;;;;;5076807;28;20426;-82
2021/07/28 08:10:04;;;;;;;11.82;2.85;;;23.60;66.50;;;;;;5094279;28;20028;-80
2021/07/28 08:12:30;;;;;;;5.30;2.80;;;23.80;65.60;;;;;;5095729;28;20036;-79
2021/07/28 08:14:55;;;;;;;4.47;2.35;;;24.00;65.00;;;;;;5095405;28;20036;-79
2021/07/28 08:17:21;;;;;;;4.00;2.60;;;24.20;64.30;;;;;;5078994;28;20027;-79
2021/07/28 08:19:47;;;;;;;4.05;2.10;;;24.30;64.40;;;;;;5078011;28;20479;-80
2021/07/28 08:22:12;;;;;;;6.53;2.40;;;25.10;63.60;;;;;;5062216;28;20028;-79
2021/07/28 08:24:38;;;;;;;4.82;2.03;;;26.00;62.40;;;;;;5094182;28;20069;-82
2021/07/28 08:27:04;;;;;;;4.90;2.13;;;26.60;60.30;;;;;;5094665;28;20028;-80
2021/07/28 08:29:29;;;;;;;3.97;1.85;;;27.00;58.40;;;;;;5095225;28;20024;-80
2021/07/28 08:31:55;;;;;;;3.47;1.60;;;27.20;57.80;;;;;;5094569;28;20031;-81
2021/07/28 08:34:21;;;;;;;3.33;1.30;;;27.40;57.50;;;;;;5095962;28;20048;-79
2021/07/28 08:36:46;;;;;;;4.32;1.50;;;27.60;56.70;;;;;;5095515;28;20059;-80
2021/07/28 08:39:12;;;;;;;4.18;1.30;;;27.80;54.00;;;;;;5078973;28;20067;-80
2021/07/28 08:41:41;;;;;;;2.78;0.95;;;28.20;53.40;;;;;;5096325;28;20039;-80
2021/07/28 08:44:08;;;;;;;2.47;0.90;;;28.20;53.40;;;;;;5096627;28;20078;-83
2021/07/28 08:46:35;;;;;;;2.35;1.13;;;28.50;52.80;;;;;;5097537;28;20096;-85
2021/07/28 08:49:02;;;;;;;2.05;1.10;;;28.70;51.90;;;;;;5079201;28;20053;-82
2021/07/28 08:51:28;;;;;;;3.10;1.08;;;28.70;50.40;;;;;;5095550;28;20045;-81
2021/07/28 08:53:54;;;;;;;4.18;1.10;;;28.50;51.40;;;;;;5096531;28;20024;-82
2021/07/28 08:56:23;;;;;;;2.85;1.40;;;28.10;52.00;;;;;;5095985;28;20021;-82
2021/07/28 08:58:49;;;;;;;3.83;0.90;;;27.60;52.30;;;;;;5095291;28;20077;-81
2021/07/28 09:01:16;;;;;;;4.78;1.25;;;27.10;53.20;;;;;;5095877;28;20028;-81
2021/07/28 09:03:44;;;;;;;3.08;1.00;;;26.70;54.50;;;;;;5097344;28;20460;-82
2021/07/28 09:06:27;;;;;;;2.75;1.20;;;26.70;54.80;;;;;;5087977;28;20060;-79
2021/07/28 09:09:01;;;;;;;2.47;1.38;;;27.00;54.20;;;;;;5109303;28;20027;-81
2021/07/28 09:11:34;;;;;;;4.00;1.08;;;27.20;54.40;;;;;;5112740;28;20028;-80
2021/07/28 09:14:16;;;;;;;3.72;1.30;;;27.70;54.10;;;;;;5112416;28;20028;-81
2021/07/28 09:16:42;;;;;;;1.45;0.70;;;28.30;53.50;;;;;;5101827;28;20038;-80
2021/07/28 09:19:07;;;;;;;2.13;0.60;;;28.80;49.80;;;;;;5081397;28;20103;-83
2021/07/28 09:21:34;;;;;;;2.63;0.60;;;29.30;48.70;;;;;;5081600;28;20044;-80
2021/07/28 09:24:00;;;;;;;2.35;0.73;;;29.80;47.40;;;;;;5082438;28;20077;-82
2021/07/28 09:26:31;;;;;;;1.95;0.68;;;30.10;46.70;;;;;;5098628;28;20110;-80
2021/07/28 09:29:17;;;;;;;1.88;0.82;;;30.50;45.50;;;;;;5098008;28;20028;-79
2021/07/28 09:31:43;;;;;;;2.20;0.70;;;30.60;45.60;;;;;;5099168;28;20040;-79
2021/07/28 09:34:21;;;;;;;2.47;0.57;;;30.70;45.00;;;;;;5098633;28;20341;-79
2021/07/28 09:36:48;;;;;;;2.13;0.60;;;30.40;45.40;;;;;;5099024;28;20031;-80
2021/07/28 09:39:42;;;;;;;4.30;0.75;;;30.10;46.00;;;;;;5100102;28;20048;-79
2021/07/28 09:42:19;;;;;;;1.63;0.70;;;30.20;45.60;;;;;;5101382;28;20028;-80
2021/07/28 09:44:47;;;;;;;3.20;0.80;;;30.20;45.70;;;;;;5098844;28;20051;-80
2021/07/28 09:47:19;;;;;;;2.45;0.60;;;30.20;46.40;;;;;;5100444;28;20024;-80
2021/07/28 09:49:45;;;;;;;;;;;30.10;44.30;;;;;;5101778;28;20032;-78
2021/07/28 09:52:26;;;;;;;4.63;0.70;;;29.80;44.60;;;;;;5098964;28;19950;-79
2021/07/28 09:54:55;;;;;;;2.15;0.57;;;29.60;45.30;;;;;;5099138;28;20069;-78
2021/07/28 09:57:26;;;;;;;0.90;0.50;;;29.30;45.30;;;;;;5098296;28;20024;-81
2021/07/28 10:00:06;;;;;;;1.00;0.50;;;29.70;45.50;;;;;;5095889;28;20021;-80
2021/07/28 10:02:35;;;;;;;2.38;0.50;;;30.10;44.10;;;;;;5096753;28;20122;-79
2021/07/28 10:05:03;;;;;;;1.90;0.50;;;30.40;43.10;;;;;;5096503;28;20028;-79
2021/07/28 10:07:32;;;;;;;1.33;0.50;;;30.50;42.80;;;;;;5096126;28;20024;-79
2021/07/28 10:10:10;;;;;;;1.17;0.50;;;30.20;43.10;;;;;;5097503;28;20028;-81
2021/07/28 10:12:40;;;;;;;2.13;0.70;;;29.90;43.30;;;;;;5097846;28;20024;-80
2021/07/28 10:15:10;;;;;;;3.95;0.60;;;29.60;43.20;;;;;;5080816;28;20082;-80
2021/07/28 10:17:42;;;;;;;2.25;0.60;;;29.50;43.60;;;;;;5096683;28;20020;-79
2021/07/28 10:20:11;;;;;;;3.65;0.70;;;29.30;44.50;;;;;;5095539;28;20432;-78
2021/07/28 10:22:37;;;;;;;2.50;0.82;;;29.10;44.90;;;;;;5096851;28;20475;-79
2021/07/28 10:25:08;;;;;;;2.00;0.60;;;29.20;45.30;;;;;;5096304;28;20028;-79
2021/07/28 10:27:52;;;;;;;2.92;0.50;;;29.70;44.60;;;;;;5098364;28;20035;-79
2021/07/28 10:30:22;;;;;;;2.95;0.50;;;29.80;43.50;;;;;;5079535;28;20031;-79
2021/07/28 10:32:49;;;;;;;3.05;0.60;;;30.00;43.20;;;;;;5095279;28;20032;-78
2021/07/28 10:35:28;;;;;;;3.25;0.45;;;29.80;43.30;;;;;;5094166;28;20118;-77
2021/07/28 10:38:01;;;;;;;2.75;0.50;;;29.90;43.90;;;;;;5094884;28;20032;-77
2021/07/28 10:40:26;;;;;;;2.83;0.57;;;30.30;43.50;;;;;;5093556;28;20196;-78
2021/07/28 10:42:56;;;;;;;1.77;0.50;;;30.50;43.00;;;;;;5093540;28;20141;-77
2021/07/28 10:45:23;;;;;;;1.80;0.47;;;30.60;41.50;;;;;;5093588;28;20097;-77
2021/07/28 10:47:51;;;;;;;3.53;0.45;;;30.60;41.60;;;;;;5094619;28;20031;-78
2021/07/28 10:50:41;;;;;;;2.92;0.52;;;30.60;41.70;;;;;;5093502;28;20024;-79
2021/07/28 10:53:07;;;;;;;2.83;0.50;;;30.70;40.40;;;;;;5093739;28;20039;-78
2021/07/28 10:55:36;;;;;;;1.02;0.40;;;30.50;40.80;;;;;;5076484;28;20024;-77
2021/07/28 10:58:11;;;;;;;3.05;0.60;;;30.40;40.60;;;;;;5093662;28;20377;-81
2021/07/28 11:00:39;;;;;;;2.35;0.43;;;30.50;41.30;;;;;;5093755;28;20337;-79
2021/07/28 11:03:08;;;;;;;3.45;0.57;;;30.70;40.90;;;;;;5093845;28;20047;-79
2021/07/28 11:05:40;;;;;;;1.27;0.38;;;31.00;40.50;;;;;;5094905;28;20470;-77
2021/07/28 11:08:05;;;;;;;2.20;0.45;;;31.00;40.90;;;;;;5093090;28;20030;-78
2021/07/28 11:10:36;;;;;;;1.52;0.43;;;31.10;40.50;;;;;;5093294;28;20028;-79
2021/07/28 11:13:14;;;;;;;1.95;0.50;;;31.30;39.70;;;;;;5093977;28;20511;-82
2021/07/28 11:16:01;;;;;;;3.42;0.60;;;31.20;39.40;;;;;;5094681;28;20349;-78
2021/07/28 11:18:43;;;;;;;2.40;0.50;;;30.70;40.40;;;;;;5093830;28;20031;-77
2021/07/28 11:21:15;;;;;;;;;;;30.60;40.50;;;;;;5092859;28;20030;-78
2021/07/28 11:23:44;;;;;;;2.47;0.50;;;30.70;40.40;;;;;;5093177;28;19993;-79
2021/07/28 11:26:34;;;;;;;1.60;0.40;;;30.80;40.40;;;;;;5094405;28;20020;-78
2021/07/28 11:29:06;;;;;;;5.30;0.68;;;31.00;40.00;;;;;;5079693;28;20093;-79
2021/07/28 11:31:37;;;;;;;3.83;0.50;;;30.50;39.30;;;;;;5094315;28;20109;-78
2021/07/28 11:34:07;;;;;;;1.63;0.50;;;30.20;40.90;;;;;;5092594;28;20020;-78
2021/07/28 11:36:34;;;;;;;1.75;0.60;;;30.10;41.10;;;;;;5093461;28;20476;-78
2021/07/28 11:39:07;;;;;;;3.10;0.35;;;30.00;41.30;;;;;;5092344;28;20408;-76
2021/07/28 11:41:32;;;;;;;1.40;0.40;;;29.90;40.70;;;;;;5092541;28;20020;-77
2021/07/28 11:43:58;;;;;;;2.35;0.45;;;29.70;39.60;;;;;;5075648;28;20063;-76
2021/07/28 11:46:24;;;;;;;1.42;0.50;;;29.60;40.00;;;;;;5093101;28;20028;-77
2021/07/28 11:48:57;;;;;;;1.88;0.40;;;29.50;41.20;;;;;;5093952;28;20085;-78
2021/07/28 11:51:44;;;;;;;3.60;0.50;;;29.50;41.10;;;;;;5061478;28;20054;-77
2021/07/28 11:54:11;;;;;;;1.30;0.40;;;29.30;41.30;;;;;;5093074;28;20028;-78
2021/07/28 11:56:38;;;;;;;4.18;0.55;;;29.10;42.30;;;;;;5092841;28;20440;-76
2021/07/28 11:59:04;;;;;;;3.42;0.40;;;29.10;43.10;;;;;;5093044;28;20035;-77
2021/07/28 12:01:31;;;;;;;2.28;0.40;;;28.70;41.10;;;;;;5092496;28;20026;-77
2021/07/28 12:04:05;;;;;;;1.67;0.50;;;28.30;42.60;;;;;;5092279;28;20115;-76
2021/07/28 12:06:50;;;;;;;2.00;0.60;;;28.50;43.10;;;;;;5093089;28;20024;-78
2021/07/28 12:09:22;;;;;;;3.53;0.50;;;28.60;43.10;;;;;;5095089;28;20027;-77
2021/07/28 12:11:53;;;;;;;1.92;0.40;;;28.70;42.90;;;;;;5094088;28;20025;-77
2021/07/28 12:14:33;;;;;;;1.95;0.45;;;28.40;43.00;;;;;;5094031;28;20025;-78
2021/07/28 12:17:04;;;;;;;2.10;0.40;;;28.00;43.20;;;;;;5092344;28;20067;-77
2021/07/28 12:19:35;;;;;;;2.05;0.52;;;27.80;44.20;;;;;;5094807;28;20026;-75
2021/07/28 12:22:12;;;;;;;1.83;0.50;;;27.90;44.80;;;;;;5096439;28;20038;-76
2021/07/28 12:24:47;;;;;;;2.17;0.50;;;28.10;45.20;;;;;;5097313;28;20054;-77
2021/07/28 12:27:25;;;;;;;2.20;0.47;;;28.20;44.50;;;;;;5096010;28;20402;-81
2021/07/28 12:30:03;;;;;;;1.73;0.45;;;28.10;43.80;;;;;;5095206;28;20035;-76
2021/07/28 12:32:45;;;;;;;1.52;0.50;;;28.30;43.10;;;;;;5095798;28;20484;-77
2021/07/28 12:35:20;;;;;;;2.83;0.50;;;28.40;42.50;;;;;;5094562;28;20021;-77
2021/07/28 12:38:02;;;;;;;1.48;0.40;;;28.50;42.70;;;;;;5093477;28;20028;-77
2021/07/28 12:40:28;;;;;;;1.13;0.40;;;28.60;42.70;;;;;;5093921;28;20189;-77
2021/07/28 12:42:53;;;;;;;1.85;0.40;;;28.60;42.70;;;;;;5095831;28;20101;-75
2021/07/28 12:45:19;;;;;;;1.40;0.40;;;28.60;42.90;;;;;;5078796;28;20479;-77
2021/07/28 12:47:44;;;;;;;3.35;0.50;;;28.40;43.40;;;;;;5097219;28;20202;-76
2021/07/28 12:50:10;;;;;;;3.08;0.40;;;28.50;43.50;;;;;;5098923;28;20123;-76
2021/07/28 12:52:36;;;;;;;1.70;0.38;;;28.80;43.40;;;;;;5098277;28;20029;-76
2021/07/28 12:55:01;;;;;;;3.10;0.40;;;29.00;43.20;;;;;;5097747;28;20032;-78